createdAt,value
2023-04-22T00:01:21.169Z,999.48
2023-04-22T00:04:21.374Z,999.43
2023-04-22T00:07:21.148Z,999.47
2023-04-22T00:10:21.171Z,999.45
2023-04-22T00:13:21.161Z,999.46
2023-04-22T00:16:21.183Z,999.47
2023-04-22T00:19:21.150Z,999.44
2023-04-22T00:22:21.153Z,999.46
2023-04-22T00:25:21.150Z,999.48
2023-04-22T00:28:21.147Z,999.48
2023-04-22T00:31:21.210Z,999.44
2023-04-22T00:34:21.153Z,999.44
2023-04-22T00:37:21.138Z,999.44
2023-04-22T00:40:21.156Z,999.41
2023-04-22T00:43:21.145Z,999.38
2023-04-22T00:46:21.180Z,999.36
2023-04-22T00:49:21.132Z,999.37
2023-04-22T00:52:21.141Z,999.4
2023-04-22T00:55:21.138Z,999.36
2023-04-22T00:58:21.144Z,999.38
2023-04-22T01:01:21.167Z,999.41
2023-04-22T01:04:21.298Z,999.4
2023-04-22T01:07:21.146Z,999.37
2023-04-22T01:10:21.137Z,999.36
2023-04-22T01:13:21.135Z,999.35
2023-04-22T01:16:21.164Z,999.3
2023-04-22T01:19:21.139Z,999.27
2023-04-22T01:22:21.144Z,999.22
2023-04-22T01:25:21.133Z,999.23
2023-04-22T01:28:21.136Z,999.22
2023-04-22T01:31:21.136Z,999.17
2023-04-22T01:34:21.143Z,999.19
2023-04-22T01:37:21.150Z,999.23
2023-04-22T01:40:21.128Z,999.23
2023-04-22T01:43:21.132Z,999.25
2023-04-22T01:46:21.211Z,999.25
2023-04-22T01:49:21.132Z,999.24
2023-04-22T01:52:21.132Z,999.28
2023-04-22T01:55:21.130Z,999.24
2023-04-22T01:58:21.131Z,999.2
2023-04-22T02:01:21.149Z,999.15
2023-04-22T02:04:21.124Z,999.17
2023-04-22T02:07:21.136Z,999.19
2023-04-22T02:10:21.125Z,999.2
2023-04-22T02:13:21.129Z,999.29
2023-04-22T02:16:21.158Z,999.32
2023-04-22T02:19:21.142Z,999.34
2023-04-22T02:22:21.137Z,999.28
2023-04-22T02:25:21.199Z,999.28
2023-04-22T02:28:21.133Z,999.25
2023-04-22T02:31:21.165Z,999.27
2023-04-22T02:34:21.129Z,999.24
2023-04-22T02:37:21.130Z,999.3
2023-04-22T02:40:21.123Z,999.33
2023-04-22T02:43:21.120Z,999.36
2023-04-22T02:46:21.179Z,999.33
2023-04-22T02:49:21.128Z,999.35
2023-04-22T02:52:21.133Z,999.32
2023-04-22T02:55:21.125Z,999.29
2023-04-22T02:58:21.119Z,999.29
2023-04-22T03:01:21.142Z,999.25
2023-04-22T03:04:21.182Z,999.23
2023-04-22T03:07:21.114Z,999.25
2023-04-22T03:10:21.122Z,999.25
2023-04-22T03:13:21.111Z,999.27
2023-04-22T03:16:21.165Z,999.27
2023-04-22T03:19:21.106Z,999.25
2023-04-22T03:22:21.103Z,999.25
2023-04-22T03:25:21.110Z,999.29
2023-04-22T03:28:21.119Z,999.32
2023-04-22T03:31:21.129Z,999.33
2023-04-22T03:34:21.101Z,999.36
2023-04-22T03:37:21.105Z,999.37
2023-04-22T03:40:21.112Z,999.34
2023-04-22T03:43:21.110Z,999.31
2023-04-22T03:46:21.180Z,999.31
2023-04-22T03:49:21.102Z,999.28
2023-04-22T03:52:21.097Z,999.33
2023-04-22T03:55:21.104Z,999.32
2023-04-22T03:58:21.097Z,999.28
2023-04-22T04:01:21.098Z,999.32
2023-04-22T04:04:21.381Z,999.3
2023-04-22T04:07:21.093Z,999.29
2023-04-22T04:10:21.093Z,999.31
2023-04-22T04:13:21.086Z,999.33
2023-04-22T04:16:21.138Z,999.3
2023-04-22T04:19:21.089Z,999.3
2023-04-22T04:22:21.099Z,999.26
2023-04-22T04:25:21.085Z,999.27
2023-04-22T04:28:21.092Z,999.25
2023-04-22T04:31:21.107Z,999.28
2023-04-22T04:34:21.078Z,999.29
2023-04-22T04:37:21.081Z,999.2
2023-04-22T04:40:21.085Z,999.18
2023-04-22T04:43:21.084Z,999.12
2023-04-22T04:46:21.142Z,999.08
2023-04-22T04:49:21.066Z,999.13
2023-04-22T04:52:21.093Z,999.11
2023-04-22T04:55:21.080Z,999.15
2023-04-22T04:58:21.070Z,999.21
2023-04-22T05:01:21.134Z,999.25
2023-04-22T05:04:21.195Z,999.19
2023-04-22T05:07:21.064Z,999.15
2023-04-22T05:10:21.060Z,999.13
2023-04-22T05:13:21.077Z,999.14
2023-04-22T05:16:21.096Z,999.2
2023-04-22T05:19:21.079Z,999.16
2023-04-22T05:22:21.073Z,999.13
2023-04-22T05:25:21.069Z,999.13
2023-04-22T05:28:21.053Z,999.13
2023-04-22T05:31:21.111Z,999.13
2023-04-22T05:34:21.064Z,999.12
2023-04-22T05:37:21.063Z,999.2
2023-04-22T05:40:21.053Z,999.26
2023-04-22T05:43:21.056Z,999.28
2023-04-22T05:46:21.092Z,999.33
2023-04-22T05:49:21.071Z,999.37
2023-04-22T05:52:21.079Z,999.32
2023-04-22T05:55:21.072Z,999.36
2023-04-22T05:58:21.057Z,999.4
2023-04-22T06:01:21.078Z,999.39
2023-04-22T06:04:21.229Z,999.39
2023-04-22T06:07:21.152Z,999.4
2023-04-22T06:10:21.174Z,999.4
2023-04-22T06:13:21.155Z,999.4
2023-04-22T06:16:21.159Z,999.37
2023-04-22T06:19:21.155Z,999.35
2023-04-22T06:22:21.163Z,999.3
2023-04-22T06:25:21.162Z,999.33
2023-04-22T06:28:21.158Z,999.36
2023-04-22T06:31:21.353Z,999.34
2023-04-22T06:34:21.152Z,999.37
2023-04-22T06:37:21.155Z,999.33
2023-04-22T06:40:21.147Z,999.38
2023-04-22T06:43:21.148Z,999.44
2023-04-22T06:46:21.166Z,999.45
2023-04-22T06:49:21.155Z,999.39
2023-04-22T06:52:21.913Z,999.42
2023-04-22T06:55:21.182Z,999.43
2023-04-22T06:58:21.141Z,999.42
2023-04-22T07:01:21.162Z,999.38
2023-04-22T07:04:21.175Z,999.35
2023-04-22T07:07:21.144Z,999.3
2023-04-22T07:10:21.135Z,999.3
2023-04-22T07:13:21.134Z,999.33
2023-04-22T07:16:21.200Z,999.4
2023-04-22T07:19:21.132Z,999.42
2023-04-22T07:22:21.180Z,999.37
2023-04-22T07:25:21.140Z,999.41
2023-04-22T07:28:21.129Z,999.34
2023-04-22T07:31:21.150Z,999.33
2023-04-22T07:34:21.130Z,999.28
2023-04-22T07:37:21.130Z,999.24
2023-04-22T07:40:21.134Z,999.25
2023-04-22T07:43:21.125Z,999.24
2023-04-22T07:46:21.205Z,999.27
2023-04-22T07:49:21.123Z,999.23
2023-04-22T07:52:21.131Z,999.19
2023-04-22T07:55:21.116Z,999.2
2023-04-22T07:58:21.123Z,999.18
2023-04-22T08:01:21.206Z,999.12
2023-04-22T08:04:21.387Z,999.03
2023-04-22T08:10:21.130Z,999.1
2023-04-22T08:13:21.132Z,999.12
2023-04-22T08:16:21.195Z,999.11
2023-04-22T08:19:21.126Z,999.13
2023-04-22T08:22:21.119Z,999.07
2023-04-22T08:25:21.115Z,999.07
2023-04-22T08:28:21.117Z,999.04
2023-04-22T08:31:21.137Z,999.04
2023-04-22T08:34:21.114Z,999.06
2023-04-22T08:37:21.116Z,999.01
2023-04-22T08:40:21.114Z,999
2023-04-22T08:43:21.113Z,998.95
2023-04-22T08:46:21.130Z,998.97
2023-04-22T08:49:21.107Z,998.97
2023-04-22T08:52:21.117Z,999.01
2023-04-22T08:55:21.107Z,999.02
2023-04-22T08:58:21.105Z,999
2023-04-22T09:01:21.146Z,998.97
2023-04-22T09:04:21.181Z,998.92
2023-04-22T09:07:21.102Z,998.9
2023-04-22T09:10:21.107Z,998.86
2023-04-22T09:13:21.110Z,998.85
2023-04-22T09:16:21.156Z,998.8
2023-04-22T09:19:21.108Z,998.82
2023-04-22T09:22:21.101Z,998.76
2023-04-22T09:25:21.099Z,998.77
2023-04-22T09:28:21.128Z,998.82
2023-04-22T09:31:21.116Z,998.78
2023-04-22T09:34:21.106Z,998.83
2023-04-22T09:37:21.111Z,998.87
2023-04-22T09:40:21.105Z,998.88
2023-04-22T09:43:21.102Z,998.85
2023-04-22T09:46:21.168Z,998.87
2023-04-22T09:49:21.097Z,998.83
2023-04-22T09:52:21.093Z,998.8
2023-04-22T09:55:21.086Z,998.75
2023-04-22T09:58:21.100Z,998.74
2023-04-22T10:01:21.115Z,998.61
2023-04-22T10:04:21.125Z,998.65
2023-04-22T10:07:21.099Z,998.6
2023-04-22T10:10:21.091Z,998.62
2023-04-22T10:13:21.108Z,998.59
2023-04-22T10:16:21.115Z,998.55
2023-04-22T10:19:21.089Z,998.47
2023-04-22T10:22:21.084Z,998.47
2023-04-22T10:25:21.091Z,998.46
2023-04-22T10:28:21.076Z,998.43
2023-04-22T10:31:21.087Z,998.41
2023-04-22T10:34:21.085Z,998.4
2023-04-22T10:37:21.089Z,998.37
2023-04-22T10:40:21.076Z,998.38
2023-04-22T10:43:21.075Z,998.38
2023-04-22T10:46:21.133Z,998.37
2023-04-22T10:49:21.153Z,998.28
2023-04-22T10:52:21.075Z,998.19
2023-04-22T10:55:21.078Z,998.19
2023-04-22T10:58:21.078Z,998.19
2023-04-22T11:01:21.125Z,998.15
2023-04-22T11:04:21.128Z,998.08
2023-04-22T11:07:21.140Z,998.07
2023-04-22T11:10:21.074Z,998.04
2023-04-22T11:13:21.134Z,998.03
2023-04-22T11:16:22.201Z,998.03
2023-04-22T11:19:21.161Z,997.92
2023-04-22T11:22:21.104Z,997.93
2023-04-22T11:25:21.081Z,997.86
2023-04-22T11:28:21.615Z,997.84
2023-04-22T11:31:21.092Z,997.82
2023-04-22T11:34:21.078Z,997.87
2023-04-22T11:37:21.094Z,997.85
2023-04-22T11:40:28.705Z,997.77
2023-04-22T11:43:21.064Z,997.74
2023-04-22T11:46:22.412Z,997.77
2023-04-22T11:49:21.059Z,997.7
2023-04-22T11:52:21.340Z,997.72
2023-04-22T11:55:21.062Z,997.69
2023-04-22T11:58:21.062Z,997.73
2023-04-22T12:01:21.062Z,997.7
2023-04-22T12:04:21.059Z,997.64
2023-04-22T12:07:21.057Z,997.62
2023-04-22T12:10:21.044Z,997.61
2023-04-22T12:13:21.065Z,997.56
2023-04-22T12:16:21.076Z,997.55
2023-04-22T12:19:21.051Z,997.52
2023-04-22T12:22:21.042Z,997.57
2023-04-22T12:25:21.046Z,997.52
2023-04-22T12:28:21.049Z,997.52
2023-04-22T12:31:21.119Z,997.6
2023-04-22T12:34:21.038Z,997.51
2023-04-22T12:37:23.351Z,997.48
2023-04-22T12:40:21.938Z,997.47
2023-04-22T12:43:21.928Z,997.42
2023-04-22T12:46:21.962Z,997.46
2023-04-22T12:49:21.943Z,997.43
2023-04-22T12:52:21.929Z,997.43
2023-04-22T12:55:21.924Z,997.44
2023-04-22T12:58:21.926Z,997.46
2023-04-22T13:01:21.937Z,997.42
2023-04-22T13:04:21.980Z,997.44
2023-04-22T13:07:21.917Z,997.43
2023-04-22T13:10:21.915Z,997.46
2023-04-22T13:13:21.933Z,997.47
2023-04-22T13:16:21.943Z,997.47
2023-04-22T13:19:21.910Z,997.46
2023-04-22T13:22:21.907Z,997.41
2023-04-22T13:25:21.910Z,997.41
2023-04-22T13:28:21.907Z,997.51
2023-04-22T13:31:21.924Z,997.51
2023-04-22T13:34:21.903Z,997.49
2023-04-22T13:37:21.904Z,997.51
2023-04-22T13:40:21.905Z,997.52
2023-04-22T13:43:21.938Z,997.52
2023-04-22T13:46:21.914Z,997.53
2023-04-22T13:49:21.908Z,997.54
2023-04-22T13:52:21.902Z,997.48
2023-04-22T13:55:21.909Z,997.51
2023-04-22T13:58:21.906Z,997.49
2023-04-22T14:01:21.925Z,997.45
2023-04-22T14:04:21.961Z,997.43
2023-04-22T14:07:21.898Z,997.39
2023-04-22T14:10:21.891Z,997.4
2023-04-22T14:13:21.894Z,997.47
2023-04-22T14:16:21.904Z,997.44
2023-04-22T14:19:21.896Z,997.48
2023-04-22T14:22:21.894Z,997.55
2023-04-22T14:25:21.913Z,997.61
2023-04-22T14:28:21.898Z,997.63
2023-04-22T14:31:21.963Z,997.62
2023-04-22T14:34:21.888Z,997.66
2023-04-22T14:37:22.764Z,997.79
2023-04-22T14:40:21.896Z,997.85
2023-04-22T14:43:21.898Z,997.93
2023-04-22T14:46:21.915Z,998.01
2023-04-22T14:49:21.882Z,998.03
2023-04-22T14:52:21.892Z,997.88
2023-04-22T14:55:23.583Z,997.87
2023-04-22T14:58:21.890Z,997.88
2023-04-22T15:01:21.904Z,997.92
2023-04-22T15:04:21.921Z,997.89
2023-04-22T15:07:21.878Z,997.82
2023-04-22T15:10:21.884Z,997.82
2023-04-22T15:13:21.884Z,997.82
2023-04-22T15:16:21.910Z,997.77
2023-04-22T15:19:21.872Z,997.73
2023-04-22T15:22:21.892Z,997.74
2023-04-22T15:25:21.881Z,997.73
2023-04-22T15:28:21.873Z,997.72
2023-04-22T15:31:21.922Z,997.73
2023-04-22T15:34:21.878Z,997.71
2023-04-22T15:37:21.869Z,997.74
2023-04-22T15:40:21.876Z,997.79
2023-04-22T15:43:21.873Z,997.74
2023-04-22T15:46:21.918Z,997.76
2023-04-22T15:49:21.868Z,997.78
2023-04-22T15:52:21.871Z,997.73
2023-04-22T15:55:21.875Z,997.75
2023-04-22T15:58:21.870Z,997.77
2023-04-22T16:01:21.877Z,997.82
2023-04-22T16:04:22.123Z,997.76
2023-04-22T16:07:21.869Z,997.75
2023-04-22T16:10:21.873Z,997.77
2023-04-22T16:13:21.872Z,997.8
2023-04-22T16:16:21.890Z,997.72
2023-04-22T16:19:21.871Z,997.72
2023-04-22T16:22:21.892Z,997.75
2023-04-22T16:25:21.874Z,997.71
2023-04-22T16:28:21.905Z,997.74
2023-04-22T16:31:21.911Z,997.76
2023-04-22T16:34:21.862Z,997.78
2023-04-22T16:37:21.881Z,997.71
2023-04-22T16:40:21.856Z,997.72
2023-04-22T16:43:21.865Z,997.68
2023-04-22T16:46:21.875Z,997.66
2023-04-22T16:49:21.864Z,997.68
2023-04-22T16:52:21.869Z,997.64
2023-04-22T16:55:21.858Z,997.59
2023-04-22T16:58:21.860Z,997.56
2023-04-22T17:01:21.866Z,997.58
2023-04-22T17:04:21.956Z,997.64
2023-04-22T17:07:21.857Z,997.65
2023-04-22T17:10:21.870Z,997.68
2023-04-22T17:13:21.855Z,997.65
2023-04-22T17:16:21.906Z,997.67
2023-04-22T17:19:21.850Z,997.67
2023-04-22T17:22:21.860Z,997.69
2023-04-22T17:25:21.849Z,997.68
2023-04-22T17:28:21.847Z,997.67
2023-04-22T17:31:21.859Z,997.7
2023-04-22T17:34:21.852Z,997.72
2023-04-22T17:37:21.859Z,997.78
2023-04-22T17:40:21.851Z,997.76
2023-04-22T17:43:21.848Z,997.76
2023-04-22T17:46:21.870Z,997.77
2023-04-22T17:49:21.852Z,997.77
2023-04-22T17:52:21.843Z,997.73
2023-04-22T17:55:21.842Z,997.82
2023-04-22T17:58:21.841Z,997.78
2023-04-22T18:01:21.846Z,997.87
2023-04-22T18:04:21.853Z,997.89
2023-04-22T18:07:21.851Z,997.87
2023-04-22T18:10:21.845Z,997.96
2023-04-22T18:13:21.834Z,997.9
2023-04-22T18:16:21.856Z,997.95
2023-04-22T18:19:21.853Z,997.93
2023-04-22T18:22:21.832Z,997.98
2023-04-22T18:25:21.846Z,997.99
2023-04-22T18:28:21.849Z,998
2023-04-22T18:31:21.836Z,997.99
2023-04-22T18:34:21.832Z,998.02
2023-04-22T18:37:21.828Z,998.09
2023-04-22T18:40:21.830Z,998.09
2023-04-22T18:43:21.829Z,998.14
2023-04-22T18:46:21.869Z,998.16
2023-04-22T18:49:21.831Z,998.18
2023-04-22T18:52:21.830Z,998.25
2023-04-22T18:55:21.837Z,998.3
2023-04-22T18:58:21.820Z,998.31
2023-04-22T19:01:21.872Z,998.33
2023-04-22T19:04:21.851Z,998.38
2023-04-22T19:07:21.820Z,998.44
2023-04-22T19:10:21.815Z,998.48
2023-04-22T19:13:28.983Z,998.53
2023-04-22T19:16:22.623Z,998.59
2023-04-22T19:19:21.815Z,998.62
2023-04-22T19:22:21.817Z,998.59
2023-04-22T19:25:21.817Z,998.63
2023-04-22T19:28:21.820Z,998.66
2023-04-22T19:31:21.848Z,998.67
2023-04-22T19:34:21.798Z,998.61
2023-04-22T19:37:21.807Z,998.55
2023-04-22T19:40:21.866Z,998.59
2023-04-22T19:43:21.808Z,998.53
2023-04-22T19:46:21.827Z,998.54
2023-04-22T19:49:21.801Z,998.58
2023-04-22T19:52:21.804Z,998.61
2023-04-22T19:55:21.806Z,998.65
2023-04-22T19:58:21.792Z,998.64
2023-04-22T20:01:21.830Z,998.67
2023-04-22T20:04:21.887Z,998.7
2023-04-22T20:07:21.799Z,998.71
2023-04-22T20:10:21.865Z,998.7
2023-04-22T20:13:21.798Z,998.7
2023-04-22T20:16:21.822Z,998.74
2023-04-22T20:19:21.818Z,998.75
2023-04-22T20:22:21.799Z,998.71
2023-04-22T20:25:21.794Z,998.76
2023-04-22T20:28:21.787Z,998.71
2023-04-22T20:31:21.816Z,998.68
2023-04-22T20:34:21.792Z,998.71
2023-04-22T20:37:21.788Z,998.76
2023-04-22T20:40:22.659Z,998.74
2023-04-22T20:43:21.793Z,998.77
2023-04-22T20:46:23.021Z,998.78
2023-04-22T20:49:21.790Z,998.77
2023-04-22T20:52:21.794Z,998.77
2023-04-22T20:55:21.785Z,998.78
2023-04-22T20:58:21.786Z,998.84
2023-04-22T21:01:21.820Z,998.85
2023-04-22T21:04:21.824Z,998.84
2023-04-22T21:07:21.788Z,998.83
2023-04-22T21:10:21.787Z,998.81
2023-04-22T21:13:21.948Z,998.81
2023-04-22T21:16:21.862Z,998.78
2023-04-22T21:19:21.770Z,998.86
2023-04-22T21:22:21.779Z,998.83
2023-04-22T21:25:21.774Z,998.83
2023-04-22T21:28:21.775Z,998.86
2023-04-22T21:31:21.778Z,998.84
2023-04-22T21:34:21.768Z,998.87
2023-04-22T21:37:21.761Z,998.89
2023-04-22T21:40:21.767Z,998.95
2023-04-22T21:43:21.766Z,998.93
2023-04-22T21:46:21.939Z,998.96
2023-04-22T21:49:22.081Z,998.95
2023-04-22T21:52:21.767Z,998.95
2023-04-22T21:55:21.765Z,998.97
2023-04-22T21:58:21.780Z,998.96
2023-04-22T22:01:21.784Z,998.96
2023-04-22T22:04:21.893Z,998.95
2023-04-22T22:07:21.756Z,998.95
2023-04-22T22:10:21.760Z,998.95
2023-04-22T22:13:21.757Z,998.95
2023-04-22T22:16:21.800Z,998.98
2023-04-22T22:19:21.754Z,998.91
2023-04-22T22:22:21.754Z,998.94
2023-04-22T22:25:21.753Z,998.93
2023-04-22T22:28:21.757Z,998.94
2023-04-22T22:31:21.780Z,998.96
2023-04-22T22:34:21.754Z,998.95
2023-04-22T22:37:21.743Z,998.93
2023-04-22T22:40:21.749Z,998.94
2023-04-22T22:43:21.742Z,998.95
2023-04-22T22:46:21.812Z,998.95
2023-04-22T22:49:21.742Z,998.96
2023-04-22T22:52:21.748Z,998.99
2023-04-22T22:55:21.746Z,998.96
2023-04-22T22:58:21.750Z,998.95
2023-04-22T23:01:21.798Z,998.98
2023-04-22T23:04:21.837Z,998.96
2023-04-22T23:07:21.762Z,998.98
2023-04-22T23:10:21.753Z,998.98
2023-04-22T23:13:21.748Z,998.94
2023-04-22T23:16:21.765Z,998.89
2023-04-22T23:19:21.746Z,998.89
2023-04-22T23:22:21.737Z,998.9
2023-04-22T23:25:21.748Z,998.85
2023-04-22T23:28:21.738Z,998.86
2023-04-22T23:31:21.762Z,998.82
2023-04-22T23:34:21.742Z,998.79
2023-04-22T23:37:21.743Z,998.77
2023-04-22T23:40:21.745Z,998.8
2023-04-22T23:43:21.747Z,998.79
2023-04-22T23:46:21.785Z,998.78
2023-04-22T23:49:21.730Z,998.8
2023-04-22T23:52:21.738Z,998.77
2023-04-22T23:55:21.741Z,998.74
2023-04-22T23:58:21.739Z,998.73
